Time;durP1;ratioP1;P1;durP2;ratioP2;P2;SDS_P1;SDS_P2;PMS_P1;PMS_P2;Temp;Humidity;BMP_temperature;BMP_pressure;BME280_temperature;BME280_humidity;BME280_pressure;Samples;Min_cycle;Max_cycle;Signal;HPM_P1;HPM_P2
2022/08/28 00:00:47;;;;;;;4.70;4.33;;;23.80;80.40;24.30;96327.00;;;;5112865;28;20725;-85
2022/08/28 00:03:15;;;;;;;4.80;4.40;;;23.70;80.40;24.30;96328.00;;;;5112920;28;20645;-84
2022/08/28 00:05:44;;;;;;;3.97;3.67;;;23.80;80.50;24.30;96330.00;;;;5112444;28;20236;-84
2022/08/28 00:08:14;;;;;;;4.07;3.77;;;23.80;80.60;24.30;96325.00;;;;5112930;28;20256;-84
2022/08/28 00:10:43;;;;;;;3.90;3.60;;;23.70;80.40;24.30;96329.00;;;;5112719;28;20207;-84
2022/08/28 00:13:17;;;;;;;4.37;4.07;;;23.70;80.50;24.30;96327.00;;;;5112848;28;20279;-84
2022/08/28 00:15:47;;;;;;;4.00;3.70;;;23.70;80.50;24.30;96327.00;;;;5112042;28;20205;-84
2022/08/28 00:18:14;;;;;;;3.20;3.00;;;23.70;80.50;24.30;96324.00;;;;5112561;28;20301;-84
2022/08/28 00:20:42;;;;;;;3.67;3.37;;;23.70;80.50;24.30;96328.00;;;;5112960;28;20222;-84
2022/08/28 00:23:10;;;;;;;3.27;2.97;;;23.70;80.50;24.30;96322.00;;;;5112574;28;20282;-84
2022/08/28 00:25:37;;;;;;;2.93;2.73;;;23.70;80.40;24.30;96329.00;;;;5111957;28;20627;-84
2022/08/28 00:28:09;;;;;;;5.40;2.87;;;23.70;80.30;24.30;96332.00;;;;5112878;28;20487;-84
2022/08/28 00:30:40;;;;;;;2.63;2.43;;;23.70;80.30;24.30;96328.00;;;;5112452;28;20196;-85
2022/08/28 00:33:13;;;;;;;2.60;2.40;;;23.70;80.10;24.40;96332.00;;;;5097304;28;20670;-84
2022/08/28 00:35:42;;;;;;;2.80;2.60;;;23.70;80.10;24.30;96329.00;;;;5091398;28;20282;-84
2022/08/28 00:38:11;;;;;;;2.07;1.97;;;23.70;80.20;24.30;96324.00;;;;5092102;28;20314;-85
2022/08/28 00:40:41;;;;;;;2.00;1.90;;;23.70;80.20;24.30;96324.00;;;;5091754;28;20309;-84
2022/08/28 00:43:11;;;;;;;1.80;1.70;;;23.70;80.00;24.30;96317.00;;;;5092012;28;20230;-84
2022/08/28 00:45:39;;;;;;;1.63;1.53;;;23.70;79.80;24.30;96319.00;;;;5091355;28;20270;-84
2022/08/28 00:48:06;;;;;;;1.70;1.60;;;23.70;79.80;24.20;96316.00;;;;5091832;28;20217;-84
2022/08/28 00:53:19;;;;;;;1.90;1.80;;;23.60;79.90;24.20;96325.00;;;;5090748;28;20196;-84
2022/08/28 00:55:49;;;;;;;2.13;1.93;;;23.60;79.80;24.20;96322.00;;;;5091213;28;20292;-83
2022/08/28 00:58:19;;;;;;;2.20;1.80;;;23.60;79.80;24.20;96325.00;;;;5091461;28;20696;-84
2022/08/28 01:00:46;;;;;;;2.30;2.13;;;23.60;79.80;24.10;96318.00;;;;5091489;28;20204;-84
2022/08/28 01:03:13;;;;;;;2.07;1.97;;;23.60;80.00;24.10;96316.00;;;;5091536;28;20746;-84
2022/08/28 01:05:45;;;;;;;2.17;1.97;;;23.60;80.10;24.10;96330.00;;;;5091047;28;20715;-84
2022/08/28 01:08:12;;;;;;;1.90;1.80;;;23.50;80.10;24.10;96323.00;;;;5091385;28;20288;-84
2022/08/28 01:10:44;;;;;;;1.80;1.70;;;23.60;80.20;24.10;96323.00;;;;5091218;28;20287;-87
2022/08/28 01:13:12;;;;;;;1.97;1.87;;;23.50;80.20;24.10;96327.00;;;;5091355;28;20475;-84
2022/08/28 01:15:42;;;;;;;2.13;2.00;;;23.50;80.20;24.10;96319.00;;;;5091324;28;20261;-87
2022/08/28 01:18:14;;;;;;;2.17;1.90;;;23.50;80.20;24.10;96319.00;;;;5091177;28;20224;-84
2022/08/28 01:20:52;;;;;;;2.03;1.70;;;23.50;80.20;24.10;96320.00;;;;5091265;28;20199;-84
2022/08/28 01:23:33;;;;;;;2.03;1.83;;;23.50;80.20;24.10;96317.00;;;;5091453;28;20712;-84
2022/08/28 01:26:02;;;;;;;1.80;1.70;;;23.50;80.20;24.10;96318.00;;;;5090339;28;20214;-84
2022/08/28 01:28:29;;;;;;;1.80;1.70;;;23.50;80.30;24.10;96324.00;;;;5091062;28;20271;-84
2022/08/28 01:30:56;;;;;;;1.60;1.50;;;23.50;80.30;24.10;96323.00;;;;5090883;28;20279;-86
2022/08/28 01:33:23;;;;;;;1.70;1.60;;;23.50;80.20;24.00;96324.00;;;;5108666;28;20213;-84
2022/08/28 01:35:51;;;;;;;1.70;1.60;;;23.50;80.20;24.00;96318.00;;;;5111319;28;20199;-87
2022/08/28 01:38:18;;;;;;;1.60;1.50;;;23.50;80.30;24.00;96325.00;;;;5111426;28;20666;-84
2022/08/28 01:40:48;;;;;;;1.30;1.30;;;23.50;80.20;24.00;96320.00;;;;5111505;28;20222;-84
2022/08/28 01:43:22;;;;;;;1.70;1.60;;;23.40;80.20;24.00;96321.00;;;;5111711;28;20239;-84
2022/08/28 01:45:54;;;;;;;1.60;1.50;;;23.40;80.40;24.00;96325.00;;;;5110699;28;20286;-84
2022/08/28 01:48:24;;;;;;;1.60;1.50;;;23.40;80.40;24.00;96325.00;;;;5111449;28;20234;-84
2022/08/28 01:50:52;;;;;;;1.50;1.40;;;23.40;80.50;24.00;96326.00;;;;5111550;28;20286;-84
2022/08/28 01:53:23;;;;;;;2.13;1.77;;;23.40;80.50;24.00;96317.00;;;;5111733;28;20648;-84
2022/08/28 01:55:52;;;;;;;1.67;1.57;;;23.40;80.50;24.00;96322.00;;;;5110950;28;20194;-84
2022/08/28 01:58:22;;;;;;;1.60;1.50;;;23.40;80.50;24.00;96327.00;;;;5111236;28;20425;-84
2022/08/28 02:00:49;;;;;;;1.50;1.40;;;23.40;80.50;24.00;96325.00;;;;5111237;28;20696;-84
2022/08/28 02:03:17;;;;;;;2.10;1.90;;;23.40;80.50;24.00;96334.00;;;;5111318;28;20621;-83
2022/08/28 02:05:44;;;;;;;1.73;1.63;;;23.40;80.50;24.00;96328.00;;;;5111344;28;20222;-84
2022/08/28 02:08:12;;;;;;;1.97;1.87;;;23.40;80.70;24.00;96329.00;;;;5112029;28;20287;-85
2022/08/28 02:10:41;;;;;;;1.73;1.63;;;23.40;80.70;24.00;96325.00;;;;5111264;28;20205;-84
2022/08/28 02:13:10;;;;;;;4.17;2.27;;;23.40;80.60;24.00;96325.00;;;;5111402;28;20560;-88
2022/08/28 02:15:40;;;;;;;2.13;2.03;;;23.40;80.70;24.00;96320.00;;;;5110988;28;20274;-84
2022/08/28 02:18:08;;;;;;;2.20;2.00;;;23.40;80.80;24.00;96321.00;;;;5111270;28;20313;-84
2022/08/28 02:20:36;;;;;;;2.07;1.97;;;23.40;80.80;24.00;96320.00;;;;5110707;28;20278;-84
2022/08/28 02:23:04;;;;;;;2.30;2.20;;;23.40;80.80;24.00;96319.00;;;;5110938;28;20562;-84
2022/08/28 02:25:32;;;;;;;2.33;2.23;;;23.40;80.90;24.10;96330.00;;;;5110612;28;20198;-84
2022/08/28 02:27:59;;;;;;;2.30;2.13;;;23.40;80.90;24.10;96327.00;;;;5111376;28;20783;-86
2022/08/28 02:30:26;;;;;;;2.07;1.97;;;23.40;81.00;24.10;96325.00;;;;5111118;28;20251;-86
2022/08/28 02:32:55;;;;;;;2.67;2.47;;;23.40;80.90;24.10;96324.00;;;;5097980;28;20229;-86
2022/08/28 02:35:24;;;;;;;2.33;2.23;;;23.50;81.00;24.10;96323.00;;;;5090267;28;20293;-86
2022/08/28 02:37:52;;;;;;;2.80;2.60;;;23.40;81.00;24.10;96319.00;;;;5091186;28;20754;-85
2022/08/28 02:40:23;;;;;;;3.07;2.87;;;23.50;81.10;24.10;96319.00;;;;5094014;28;20227;-86
2022/08/28 02:42:52;;;;;;;3.17;2.97;;;23.50;81.10;24.10;96312.00;;;;5094291;28;20619;-86
2022/08/28 02:45:20;;;;;;;2.87;2.60;;;23.50;81.20;24.10;96314.00;;;;5093701;28;20707;-86
2022/08/28 02:47:50;;;;;;;3.97;3.23;;;23.50;81.30;24.10;96315.00;;;;5094067;28;20247;-86
2022/08/28 02:50:20;;;;;;;3.23;2.90;;;23.50;81.30;24.10;96318.00;;;;5093878;28;20274;-86
2022/08/28 02:52:48;;;;;;;3.37;3.10;;;23.50;81.40;24.20;96318.00;;;;5093874;28;20575;-86
2022/08/28 02:55:18;;;;;;;3.40;3.20;;;23.50;81.40;24.20;96319.00;;;;5093749;28;20219;-86
2022/08/28 02:57:47;;;;;;;3.60;3.30;;;23.50;81.40;24.20;96323.00;;;;5093664;28;20303;-86
2022/08/28 03:00:19;;;;;;;3.30;3.00;;;23.50;81.50;24.20;96318.00;;;;5093663;28;20196;-86
2022/08/28 03:02:47;;;;;;;3.60;3.30;;;23.50;81.40;24.20;96317.00;;;;5093790;28;20205;-86
2022/08/28 03:05:21;;;;;;;4.10;3.80;;;23.50;81.40;24.20;96311.00;;;;5093181;28;20238;-86
2022/08/28 03:07:49;;;;;;;4.33;4.03;;;23.50;81.40;24.20;96315.00;;;;5093576;28;20215;-86
2022/08/28 03:10:17;;;;;;;4.33;4.03;;;23.50;81.40;24.20;96315.00;;;;5093549;28;20279;-86
2022/08/28 03:12:44;;;;;;;5.20;4.70;;;23.50;81.40;24.20;96317.00;;;;5093694;28;20203;-86
2022/08/28 03:15:12;;;;;;;4.67;4.30;;;23.50;81.40;24.20;96316.00;;;;5092995;28;20196;-86
2022/08/28 03:17:40;;;;;;;5.10;4.63;;;23.50;81.50;24.20;96319.00;;;;5092976;28;20262;-86
2022/08/28 03:20:10;;;;;;;5.27;4.77;;;23.60;81.60;24.20;96313.00;;;;5093537;28;20212;-86
2022/08/28 03:25:27;;;;;;;4.63;4.30;;;23.60;81.70;24.20;96315.00;;;;5058609;28;20226;-86
2022/08/28 03:27:55;;;;;;;5.23;4.60;;;23.60;81.70;24.20;96312.00;;;;5092950;28;20269;-85
2022/08/28 03:30:23;;;;;;;5.20;4.80;;;23.60;81.70;24.20;96319.00;;;;5093390;28;20202;-86
2022/08/28 03:32:51;;;;;;;5.37;4.93;;;23.60;81.70;24.30;96317.00;;;;5092748;28;20234;-86
2022/08/28 03:35:19;;;;;;;5.67;5.17;;;23.60;81.60;24.20;96319.00;;;;5092871;28;20623;-86
2022/08/28 03:37:47;;;;;;;6.27;4.70;;;23.60;81.50;24.20;96318.00;;;;5092862;28;20217;-85
2022/08/28 03:40:15;;;;;;;6.07;5.57;;;23.60;81.60;24.20;96317.00;;;;5092909;28;20285;-86
2022/08/28 03:42:42;;;;;;;5.50;5.07;;;23.60;81.60;24.20;96323.00;;;;5092880;28;20639;-86
2022/08/28 03:45:12;;;;;;;5.13;4.73;;;23.60;81.50;24.20;96322.00;;;;5092677;28;20296;-86
2022/08/28 03:47:41;;;;;;;5.77;4.73;;;23.60;81.50;24.20;96324.00;;;;5093218;28;20254;-86
2022/08/28 03:50:11;;;;;;;5.57;5.07;;;23.60;81.40;24.20;96327.00;;;;5092200;28;20456;-86
2022/08/28 03:52:39;;;;;;;5.23;4.83;;;23.60;81.40;24.20;96327.00;;;;5092964;28;20206;-86
2022/08/28 03:55:12;;;;;;;5.40;4.90;;;23.60;81.40;24.20;96333.00;;;;5092743;28;20628;-86
2022/08/28 03:57:40;;;;;;;5.60;5.20;;;23.60;81.40;24.20;96331.00;;;;5093263;28;20255;-86
2022/08/28 04:00:12;;;;;;;5.50;5.00;;;23.60;81.40;24.20;96335.00;;;;5093003;28;20262;-86
2022/08/28 04:02:40;;;;;;;5.10;4.70;;;23.60;81.40;24.20;96326.00;;;;5092789;28;20206;-86
2022/08/28 04:05:09;;;;;;;5.40;5.00;;;23.60;81.40;24.20;96337.00;;;;5092236;28;20199;-86
2022/08/28 04:07:38;;;;;;;5.40;4.90;;;23.60;81.40;24.20;96336.00;;;;5092356;28;20759;-85
2022/08/28 04:10:08;;;;;;;5.60;5.07;;;23.60;81.50;24.20;96325.00;;;;5092805;28;20240;-85
2022/08/28 04:12:35;;;;;;;5.50;5.03;;;23.60;81.50;24.20;96333.00;;;;5091903;28;20706;-85
2022/08/28 04:15:05;;;;;;;5.47;5.03;;;23.60;81.50;24.20;96332.00;;;;5091824;28;20687;-85
2022/08/28 04:17:32;;;;;;;6.00;5.40;;;23.60;81.40;24.20;96330.00;;;;5092348;28;20310;-86
2022/08/28 04:20:00;;;;;;;5.33;4.93;;;23.60;81.40;24.20;96334.00;;;;5092032;28;20307;-85
2022/08/28 04:22:27;;;;;;;5.80;5.20;;;23.60;81.40;24.20;96340.00;;;;5092309;28;20203;-86
2022/08/28 04:24:54;;;;;;;6.20;5.67;;;23.60;81.40;24.20;96332.00;;;;5091707;28;20227;-86
2022/08/28 04:27:22;;;;;;;5.83;5.33;;;23.60;81.30;24.20;96343.00;;;;5091752;28;20262;-85
2022/08/28 04:29:50;;;;;;;5.03;4.63;;;23.60;81.30;24.20;96342.00;;;;5091860;28;20287;-86
2022/08/28 04:32:17;;;;;;;5.53;5.00;;;23.60;81.30;24.20;96345.00;;;;5091979;28;20288;-86
2022/08/28 04:34:44;;;;;;;5.03;4.57;;;23.60;81.30;24.20;96334.00;;;;5091433;28;20223;-85
2022/08/28 04:37:11;;;;;;;6.03;5.53;;;23.60;81.30;24.20;96333.00;;;;5092002;28;20587;-86
2022/08/28 04:39:38;;;;;;;6.60;5.37;;;23.50;81.20;24.20;96338.00;;;;5091648;28;20770;-85
2022/08/28 04:42:06;;;;;;;6.07;5.57;;;23.60;81.20;24.20;96336.00;;;;5091696;28;20666;-85
2022/08/28 04:44:34;;;;;;;5.73;5.23;;;23.50;81.00;24.20;96337.00;;;;5091589;28;20233;-86
2022/08/28 04:47:02;;;;;;;5.77;5.27;;;23.50;81.10;24.20;96333.00;;;;5091728;28;20253;-85
2022/08/28 04:49:29;;;;;;;5.77;5.27;;;23.50;81.10;24.20;96340.00;;;;5091647;28;20695;-85
2022/08/28 04:51:56;;;;;;;5.70;5.10;;;23.50;81.20;24.20;96336.00;;;;5091957;28;20234;-85
2022/08/28 04:54:23;;;;;;;6.83;5.30;;;23.50;81.20;24.10;96344.00;;;;5091526;28;20200;-85
2022/08/28 04:56:50;;;;;;;5.37;4.93;;;23.50;81.20;24.10;96345.00;;;;5091341;28;20231;-86
2022/08/28 04:59:18;;;;;;;5.50;5.00;;;23.50;81.20;24.10;96348.00;;;;5091438;28;20311;-86
2022/08/28 05:01:47;;;;;;;5.77;5.27;;;23.50;81.20;24.20;96355.00;;;;5091207;28;20235;-86
2022/08/28 05:04:14;;;;;;;5.80;5.30;;;23.50;81.20;24.10;96348.00;;;;5091569;28;20279;-86
2022/08/28 05:06:44;;;;;;;6.03;5.33;;;23.50;81.90;24.10;96347.00;;;;5090946;28;20200;-86
2022/08/28 05:09:13;;;;;;;5.13;4.73;;;23.50;81.20;24.10;96356.00;;;;5091446;28;20201;-86
2022/08/28 05:11:41;;;;;;;6.23;5.63;;;23.50;81.20;24.20;96350.00;;;;5091477;28;20235;-86
2022/08/28 05:14:10;;;;;;;5.47;4.97;;;23.50;81.20;24.20;96355.00;;;;5091294;28;20202;-85
2022/08/28 05:16:42;;;;;;;5.90;5.30;;;23.50;81.20;24.20;96358.00;;;;5091148;28;20257;-86
2022/08/28 05:19:12;;;;;;;6.17;5.57;;;23.50;80.90;24.20;96351.00;;;;5090993;28;20226;-86
2022/08/28 05:21:39;;;;;;;6.17;5.57;;;23.50;81.00;24.20;96352.00;;;;5091267;28;20197;-86
2022/08/28 05:24:07;;;;;;;5.63;5.17;;;23.50;81.10;24.20;96365.00;;;;5090752;28;20241;-86
2022/08/28 05:26:36;;;;;;;6.83;5.60;;;23.50;81.10;24.20;96365.00;;;;5091050;28;20204;-86
2022/08/28 05:29:05;;;;;;;5.83;5.33;;;23.50;81.10;24.20;96365.00;;;;5091070;28;20239;-86
2022/08/28 05:31:34;;;;;;;5.90;5.30;;;23.50;81.10;24.20;96366.00;;;;5093152;28;20206;-86
2022/08/28 05:34:04;;;;;;;6.13;5.53;;;23.50;81.10;24.20;96372.00;;;;5111571;28;20230;-86
2022/08/28 05:36:37;;;;;;;6.13;5.53;;;23.50;80.80;24.20;96377.00;;;;5111652;28;20626;-85
2022/08/28 05:39:11;;;;;;;5.67;5.17;;;23.50;80.80;24.20;96376.00;;;;5111317;28;20306;-86
2022/08/28 05:41:42;;;;;;;5.93;5.43;;;23.50;80.90;24.20;96378.00;;;;5110984;28;20253;-86
2022/08/28 05:44:13;;;;;;;5.37;4.93;;;23.50;81.10;24.20;96383.00;;;;5111768;28;20188;-86
2022/08/28 05:46:46;;;;;;;5.83;5.33;;;23.50;81.10;24.20;96379.00;;;;5111252;28;20206;-86
2022/08/28 05:49:16;;;;;;;5.17;4.77;;;23.50;80.90;24.10;96380.00;;;;5111277;28;20197;-86
2022/08/28 05:51:45;;;;;;;6.63;5.93;;;23.50;80.90;24.20;96380.00;;;;5111266;28;20210;-86
2022/08/28 05:54:14;;;;;;;7.20;5.73;;;23.50;81.10;24.20;96379.00;;;;5111080;28;20196;-86
2022/08/28 05:56:44;;;;;;;6.10;5.60;;;23.50;81.00;24.20;96384.00;;;;5109896;28;20195;-86
2022/08/28 05:59:13;;;;;;;5.40;4.90;;;23.50;81.00;24.20;96384.00;;;;5111156;28;20233;-86
2022/08/28 06:01:43;;;;;;;6.37;5.40;;;23.50;80.90;24.20;96386.00;;;;5111935;28;20237;-86
2022/08/28 06:04:16;;;;;;;6.87;5.50;;;23.50;80.90;24.20;96379.00;;;;5113699;28;20313;-86
2022/08/28 06:06:46;;;;;;;6.17;5.67;;;23.50;81.00;24.20;96387.00;;;;5111254;28;20203;-86
2022/08/28 06:09:19;;;;;;;6.27;5.67;;;23.60;81.10;24.20;96383.00;;;;5111337;28;20199;-86
2022/08/28 06:11:47;;;;;;;5.80;5.27;;;23.50;81.10;24.20;96392.00;;;;5111269;28;20196;-85
2022/08/28 06:14:19;;;;;;;6.40;5.70;;;23.60;81.20;24.20;96389.00;;;;5114476;28;20197;-86
2022/08/28 06:16:52;;;;;;;6.27;5.67;;;23.60;81.10;24.20;96389.00;;;;5114785;28;20647;-86
2022/08/28 06:19:21;;;;;;;5.90;5.40;;;23.60;81.70;24.30;96386.00;;;;5115091;28;20266;-86
2022/08/28 06:21:54;;;;;;;6.10;5.57;;;23.60;81.00;24.20;96388.00;;;;5114844;28;20671;-86
2022/08/28 06:24:21;;;;;;;6.50;5.90;;;23.60;80.80;24.20;96388.00;;;;5115063;28;20739;-86
2022/08/28 06:26:48;;;;;;;6.73;6.00;;;23.60;80.80;24.20;96391.00;;;;5114501;28;20290;-86
2022/08/28 06:29:17;;;;;;;6.90;6.00;;;23.60;80.80;24.20;96392.00;;;;5114709;28;20237;-86
2022/08/28 06:31:45;;;;;;;6.03;5.53;;;23.60;80.90;24.20;96399.00;;;;5114800;28;20201;-86
2022/08/28 06:34:12;;;;;;;6.53;5.77;;;23.60;80.90;24.20;96399.00;;;;5114434;28;20287;-86
2022/08/28 06:36:43;;;;;;;7.00;6.30;;;23.60;80.80;24.20;96396.00;;;;5114323;28;20713;-86
2022/08/28 06:39:14;;;;;;;6.27;5.67;;;23.60;80.60;24.20;96393.00;;;;5114919;28;20635;-86
2022/08/28 06:41:43;;;;;;;6.97;6.27;;;23.60;80.50;24.20;96391.00;;;;5114251;28;20245;-85
2022/08/28 06:44:12;;;;;;;6.20;5.67;;;23.60;80.50;24.20;96399.00;;;;5114404;28;20497;-86
2022/08/28 06:46:40;;;;;;;6.47;5.90;;;23.60;80.60;24.20;96403.00;;;;5114396;28;20566;-86
2022/08/28 06:49:08;;;;;;;5.87;5.33;;;23.50;80.60;24.20;96405.00;;;;5114577;28;20721;-86
2022/08/28 06:51:37;;;;;;;7.20;6.40;;;23.50;80.60;24.20;96407.00;;;;5114380;28;20236;-86
2022/08/28 06:54:05;;;;;;;6.60;6.00;;;23.50;80.70;24.20;96410.00;;;;5114316;28;20196;-86
2022/08/28 06:56:34;;;;;;;8.70;6.53;;;23.60;80.60;24.20;96414.00;;;;5114154;28;20232;-86
2022/08/28 06:59:02;;;;;;;6.40;5.80;;;23.60;80.50;24.20;96413.00;;;;5114236;28;20197;-86
2022/08/28 07:01:32;;;;;;;6.40;5.80;;;23.60;80.50;24.20;96418.00;;;;5114185;28;20281;-86
2022/08/28 07:04:04;;;;;;;6.57;5.77;;;23.50;80.60;24.20;96419.00;;;;5114527;28;20277;-86
2022/08/28 07:06:35;;;;;;;6.53;5.93;;;23.50;80.60;24.20;96421.00;;;;5113964;28;20234;-86
2022/08/28 07:09:05;;;;;;;6.40;5.70;;;23.60;80.80;24.20;96422.00;;;;5114251;28;20197;-86
2022/08/28 07:11:36;;;;;;;7.07;5.77;;;23.50;80.50;24.20;96426.00;;;;5114259;28;20201;-86
2022/08/28 07:14:04;;;;;;;6.10;5.47;;;23.60;80.40;24.20;96426.00;;;;5113837;28;20227;-86
2022/08/28 07:16:37;;;;;;;8.40;6.37;;;23.50;80.30;24.20;96432.00;;;;5113920;28;20203;-86
2022/08/28 07:19:06;;;;;;;6.40;5.83;;;23.50;80.40;24.30;96432.00;;;;5113820;28;20197;-86
2022/08/28 07:21:35;;;;;;;7.37;6.00;;;23.60;80.50;24.30;96435.00;;;;5113530;28;20739;-87
2022/08/28 07:24:04;;;;;;;6.33;5.73;;;23.60;80.30;24.40;96433.00;;;;5113247;28;20231;-86
2022/08/28 07:26:32;;;;;;;5.83;5.33;;;23.60;80.30;24.40;96431.00;;;;5113390;28;20573;-87
2022/08/28 07:29:01;;;;;;;6.70;6.00;;;23.60;80.20;24.50;96434.00;;;;5113877;28;20716;-87
2022/08/28 07:31:28;;;;;;;7.33;5.53;;;23.70;80.30;24.50;96436.00;;;;5113496;28;20206;-87
2022/08/28 07:33:56;;;;;;;5.97;5.37;;;23.70;80.50;24.50;96430.00;;;;5113644;28;20237;-87
2022/08/28 07:36:27;;;;;;;6.23;5.73;;;23.80;80.70;24.60;96440.00;;;;5113136;28;20236;-87
2022/08/28 07:38:56;;;;;;;6.00;5.27;;;23.80;80.70;24.70;96438.00;;;;5113530;28;20767;-87
2022/08/28 07:41:26;;;;;;;6.77;6.17;;;23.80;80.50;24.70;96441.00;;;;5113343;28;20267;-87
2022/08/28 07:46:41;;;;;;;6.00;5.50;;;23.90;80.40;24.80;96443.00;;;;5113299;28;20192;-87
2022/08/28 07:49:09;;;;;;;6.07;5.53;;;24.00;80.10;24.80;96442.00;;;;5113697;28;20232;-88
2022/08/28 07:51:37;;;;;;;5.83;5.23;;;24.00;79.80;24.80;96448.00;;;;5112984;28;20233;-87
2022/08/28 07:54:05;;;;;;;7.23;6.07;;;24.00;79.40;24.80;96444.00;;;;5113520;28;20614;-87
2022/08/28 07:56:32;;;;;;;6.70;6.00;;;24.10;79.20;24.90;96446.00;;;;5112919;28;20479;-87
2022/08/28 07:59:02;;;;;;;7.23;5.33;;;24.10;79.30;24.90;96442.00;;;;5112980;28;20324;-87
2022/08/28 08:01:30;;;;;;;7.07;5.80;;;24.10;79.20;25.00;96453.00;;;;5112999;28;20218;-87
2022/08/28 08:03:57;;;;;;;6.53;5.73;;;24.20;79.40;25.10;96455.00;;;;5112979;28;20202;-87
2022/08/28 08:06:30;;;;;;;6.80;6.20;;;24.20;79.40;25.20;96454.00;;;;5111866;28;20367;-87
2022/08/28 08:08:58;;;;;;;6.47;5.90;;;24.30;79.50;25.30;96451.00;;;;5112755;28;20274;-87
2022/08/28 08:11:26;;;;;;;6.43;5.83;;;24.40;79.50;25.40;96453.00;;;;5112223;28;20298;-87
2022/08/28 08:13:53;;;;;;;5.90;5.30;;;24.40;79.10;25.40;96457.00;;;;5112060;28;20220;-87
2022/08/28 08:16:24;;;;;;;8.17;5.50;;;24.50;79.10;25.50;96460.00;;;;5111744;28;20293;-87
2022/08/28 08:18:53;;;;;;;6.10;5.50;;;24.60;78.40;25.50;96462.00;;;;5113010;28;20276;-87
2022/08/28 08:21:22;;;;;;;5.77;5.33;;;24.60;77.90;25.50;96464.00;;;;5112550;28;20224;-87
2022/08/28 08:23:50;;;;;;;5.33;4.83;;;24.60;77.70;25.50;96467.00;;;;5113136;28;20280;-87
2022/08/28 08:26:20;;;;;;;5.90;5.30;;;24.70;77.30;25.60;96459.00;;;;5111070;28;20209;-87
2022/08/28 08:28:49;;;;;;;7.33;6.07;;;24.70;77.10;25.60;96480.00;;;;5121209;22;20291;-85
2022/08/28 08:31:22;;;;;;;5.90;4.90;;;24.70;77.00;25.60;96469.00;;;;5096980;28;20203;-85
2022/08/28 08:33:53;;;;;;;5.70;5.30;;;24.80;76.90;25.60;96469.00;;;;5072152;28;20207;-83
2022/08/28 08:36:23;;;;;;;7.10;5.97;;;24.80;76.70;25.60;96471.00;;;;5084235;28;20220;-85
2022/08/28 08:38:52;;;;;;;6.20;5.60;;;24.80;76.40;25.60;96474.00;;;;5076076;28;20254;-85
2022/08/28 08:41:28;;;;;;;7.37;5.80;;;24.80;76.40;25.60;96474.00;;;;5071438;28;20262;-84
2022/08/28 08:44:02;;;;;;;6.60;5.80;;;24.80;76.30;25.60;96485.00;;;;5071613;28;20205;-87
2022/08/28 08:46:40;;;;;;;5.90;5.30;;;24.80;76.30;25.60;96488.00;;;;5058129;28;20732;-86
2022/08/28 08:49:18;;;;;;;5.63;4.90;;;24.80;76.90;25.60;96485.00;;;;5051591;28;20243;-87
2022/08/28 08:51:52;;;;;;;5.80;5.27;;;24.90;76.40;25.60;96489.00;;;;5051606;28;20679;-87
2022/08/28 08:54:21;;;;;;;5.77;5.27;;;24.90;76.40;25.60;96486.00;;;;5051554;28;20258;-85
2022/08/28 08:56:53;;;;;;;6.60;4.93;;;24.90;76.50;25.60;96494.00;;;;5068503;28;20287;-84
2022/08/28 08:59:26;;;;;;;5.87;5.37;;;24.80;76.40;25.60;96491.00;;;;5060029;28;20222;-85
2022/08/28 09:02:04;;;;;;;5.80;5.30;;;24.90;76.00;25.60;96491.00;;;;5064299;28;20297;-85
2022/08/28 09:04:41;;;;;;;6.07;5.47;;;24.80;75.90;25.60;96495.00;;;;5071134;28;20207;-84
2022/08/28 09:07:19;;;;;;;6.67;5.57;;;24.90;76.60;25.60;96499.00;;;;5070931;28;20210;-84
2022/08/28 09:09:51;;;;;;;6.40;5.80;;;24.90;76.40;25.60;96502.00;;;;5071292;28;20203;-85
2022/08/28 09:12:22;;;;;;;6.00;5.47;;;24.90;76.30;25.60;96501.00;;;;5071092;28;20204;-85
2022/08/28 09:15:03;;;;;;;8.17;5.43;;;24.90;76.20;25.60;96508.00;;;;5070976;28;20279;-85
2022/08/28 09:17:38;;;;;;;5.73;5.30;;;24.90;75.80;25.60;96513.00;;;;5071236;28;20959;-84
2022/08/28 09:20:08;;;;;;;5.70;5.10;;;24.90;75.60;25.60;96511.00;;;;5071483;28;20648;-84
2022/08/28 09:22:36;;;;;;;5.97;5.40;;;24.90;75.70;25.60;96515.00;;;;5071207;28;20203;-84
2022/08/28 09:25:03;;;;;;;6.20;5.70;;;24.90;75.60;25.60;96515.00;;;;5070924;28;20677;-85
2022/08/28 09:27:33;;;;;;;5.20;4.80;;;24.90;75.60;25.60;96515.00;;;;5070588;28;20657;-85
2022/08/28 09:30:05;;;;;;;5.90;5.40;;;24.90;75.60;25.60;96511.00;;;;5071090;28;20203;-84
2022/08/28 09:32:37;;;;;;;4.87;4.47;;;24.90;75.30;25.60;96514.00;;;;5071384;28;20513;-85
2022/08/28 09:35:13;;;;;;;5.13;4.63;;;24.90;75.20;25.60;96514.00;;;;5071098;28;20551;-85
2022/08/28 09:37:42;;;;;;;4.93;4.57;;;24.90;75.20;25.60;96510.00;;;;5070997;28;20716;-85
2022/08/28 09:40:23;;;;;;;6.60;6.00;;;24.90;75.40;25.60;96513.00;;;;5070867;28;20697;-84
2022/08/28 09:45:59;;;;;;;5.77;5.27;;;24.90;75.10;25.60;96516.00;;;;5071805;28;20210;-83
2022/08/28 09:48:36;;;;;;;5.57;5.17;;;24.80;75.40;25.60;96517.00;;;;5078230;28;20660;-84
2022/08/28 09:51:06;;;;;;;5.80;5.40;;;24.90;75.50;25.60;96507.00;;;;5075076;28;20259;-85
2022/08/28 09:53:37;;;;;;;5.97;5.37;;;24.90;75.70;25.70;96515.00;;;;5074941;28;20289;-85
2022/08/28 09:56:18;;;;;;;5.77;5.27;;;24.90;75.60;25.70;96516.00;;;;5074820;28;20283;-84
2022/08/28 09:58:51;;;;;;;5.57;5.00;;;24.90;75.20;25.80;96515.00;;;;5074506;28;20225;-87
2022/08/28 10:01:39;;;;;;;5.70;5.20;;;24.90;75.60;25.80;96515.00;;;;5060759;28;20817;-85
2022/08/28 10:04:31;;;;;;;5.17;4.77;;;25.00;75.00;25.90;96518.00;;;;5056347;28;20611;-84
2022/08/28 10:07:08;;;;;;;5.63;5.13;;;25.00;75.10;25.90;96519.00;;;;5054619;28;20287;-85
2022/08/28 10:09:53;;;;;;;5.37;4.97;;;25.00;75.40;26.00;96516.00;;;;5054996;28;20631;-85
2022/08/28 10:12:38;;;;;;;5.33;4.77;;;25.10;75.40;26.00;96516.00;;;;5072219;28;20191;-84
2022/08/28 10:15:16;;;;;;;5.83;5.23;;;25.10;75.40;26.00;96525.00;;;;5074109;28;20346;-85
2022/08/28 10:18:09;;;;;;;5.07;4.37;;;25.20;75.00;26.10;96524.00;;;;5074882;28;20243;-85
2022/08/28 10:20:54;;;;;;;5.03;4.63;;;25.20;74.90;26.10;96526.00;;;;5072522;28;20260;-85
2022/08/28 10:23:34;;;;;;;4.50;4.20;;;25.20;74.00;26.10;96523.00;;;;5074451;28;20192;-85
2022/08/28 10:26:28;;;;;;;5.50;5.00;;;25.20;74.30;26.10;96525.00;;;;5074276;28;20235;-85
2022/08/28 10:29:15;;;;;;;5.43;4.97;;;25.30;74.10;26.20;96531.00;;;;5074242;28;20224;-85
2022/08/28 10:31:51;;;;;;;5.23;4.83;;;25.30;74.60;26.30;96526.00;;;;5065355;28;20223;-85
2022/08/28 10:34:40;;;;;;;4.90;4.40;;;25.40;74.50;26.30;96525.00;;;;5073851;28;20246;-86
2022/08/28 10:37:27;;;;;;;5.13;4.73;;;25.40;74.60;26.40;96526.00;;;;5073382;28;20686;-86
2022/08/28 10:39:57;;;;;;;5.13;4.73;;;25.40;74.10;26.50;96528.00;;;;5074596;28;20223;-85
2022/08/28 10:42:31;;;;;;;5.40;5.00;;;25.50;74.40;26.50;96532.00;;;;5073454;28;20278;-86
2022/08/28 10:45:04;;;;;;;5.60;4.93;;;25.50;74.00;26.50;96523.00;;;;5075259;28;20195;-86
2022/08/28 10:47:36;;;;;;;5.50;5.10;;;25.60;74.00;26.60;96527.00;;;;5075637;28;20258;-86
2022/08/28 10:50:11;;;;;;;5.40;5.00;;;25.60;74.00;26.60;96531.00;;;;5074426;28;20638;-86
2022/08/28 10:52:47;;;;;;;5.43;5.03;;;25.60;73.90;26.60;96535.00;;;;5074157;28;20206;-86
2022/08/28 10:55:23;;;;;;;5.10;4.73;;;25.70;74.20;26.70;96531.00;;;;5074122;28;20640;-85
2022/08/28 10:57:58;;;;;;;5.80;5.03;;;25.70;74.10;26.70;96538.00;;;;5074245;28;20223;-87
2022/08/28 11:00:27;;;;;;;5.87;5.37;;;25.80;73.90;26.70;96538.00;;;;5078315;28;20242;-86
2022/08/28 11:02:59;;;;;;;6.13;5.57;;;25.80;73.90;26.70;96539.00;;;;5075734;28;20294;-86
2022/08/28 11:05:32;;;;;;;6.37;5.87;;;25.80;73.50;26.70;96543.00;;;;5073741;28;20287;-86
2022/08/28 11:08:05;;;;;;;6.43;5.97;;;25.80;73.10;26.70;96552.00;;;;5074081;28;20212;-86
2022/08/28 11:10:49;;;;;;;6.23;5.70;;;25.80;73.20;26.70;96546.00;;;;5073687;28;20361;-86
2022/08/28 11:13:53;;;;;;;5.90;5.47;;;25.80;72.90;26.70;96539.00;;;;5073801;28;20202;-87
2022/08/28 11:16:25;;;;;;;6.47;5.87;;;25.80;72.30;26.70;96547.00;;;;5073563;28;20275;-85
2022/08/28 11:19:34;;;;;;;6.03;5.63;;;25.80;72.90;26.70;96546.00;;;;5073600;28;20244;-85
2022/08/28 11:22:10;;;;;;;6.30;5.80;;;25.90;72.90;26.80;96547.00;;;;5063418;28;20337;-86